sensor_id;sensor_type;location;lat;lon;timestamp;P1;durP1;ratioP1;P2;durP2;ratioP2
63943;SDS011;50121;51.218;7.664;2023-04-25T00:01:22;12.68;;;9.10;;
63943;SDS011;50121;51.218;7.664;2023-04-25T00:03:50;12.45;;;9.30;;
63943;SDS011;50121;51.218;7.664;2023-04-25T00:06:18;17.90;;;9.40;;
63943;SDS011;50121;51.218;7.664;2023-04-25T00:08:45;14.35;;;8.57;;
63943;SDS011;50121;51.218;7.664;2023-04-25T00:11:14;13.52;;;9.02;;
63943;SDS011;50121;51.218;7.664;2023-04-25T00:13:41;16.88;;;9.10;;
63943;SDS011;50121;51.218;7.664;2023-04-25T00:16:09;16.92;;;8.68;;
63943;SDS011;50121;51.218;7.664;2023-04-25T00:18:37;16.48;;;9.48;;
63943;SDS011;50121;51.218;7.664;2023-04-25T00:21:06;18.77;;;10.00;;
63943;SDS011;50121;51.218;7.664;2023-04-25T00:23:33;16.02;;;8.70;;
63943;SDS011;50121;51.218;7.664;2023-04-25T00:26:02;13.13;;;7.93;;
63943;SDS011;50121;51.218;7.664;2023-04-25T00:28:30;12.93;;;8.05;;
63943;SDS011;50121;51.218;7.664;2023-04-25T00:30:58;13.10;;;8.73;;
63943;SDS011;50121;51.218;7.664;2023-04-25T00:33:25;14.63;;;8.88;;
63943;SDS011;50121;51.218;7.664;2023-04-25T00:35:53;16.60;;;8.73;;
63943;SDS011;50121;51.218;7.664;2023-04-25T00:38:20;14.35;;;8.65;;
63943;SDS011;50121;51.218;7.664;2023-04-25T00:40:48;10.63;;;7.82;;
63943;SDS011;50121;51.218;7.664;2023-04-25T00:43:17;13.07;;;8.60;;
63943;SDS011;50121;51.218;7.664;2023-04-25T00:45:45;18.27;;;9.07;;
63943;SDS011;50121;51.218;7.664;2023-04-25T00:48:14;18.17;;;8.43;;
63943;SDS011;50121;51.218;7.664;2023-04-25T00:50:43;17.95;;;9.20;;
63943;SDS011;50121;51.218;7.664;2023-04-25T00:53:17;13.15;;;7.82;;
63943;SDS011;50121;51.218;7.664;2023-04-25T00:55:45;14.07;;;8.90;;
63943;SDS011;50121;51.218;7.664;2023-04-25T00:58:14;14.98;;;8.85;;
63943;SDS011;50121;51.218;7.664;2023-04-25T01:00:42;15.38;;;8.43;;
63943;SDS011;50121;51.218;7.664;2023-04-25T01:03:10;14.25;;;9.07;;
63943;SDS011;50121;51.218;7.664;2023-04-25T01:05:40;13.30;;;8.30;;
63943;SDS011;50121;51.218;7.664;2023-04-25T01:08:08;15.25;;;8.80;;
63943;SDS011;50121;51.218;7.664;2023-04-25T01:10:36;13.00;;;8.43;;
63943;SDS011;50121;51.218;7.664;2023-04-25T01:13:04;14.90;;;8.52;;
63943;SDS011;50121;51.218;7.664;2023-04-25T01:15:34;13.98;;;8.50;;
63943;SDS011;50121;51.218;7.664;2023-04-25T01:18:03;13.05;;;8.80;;
63943;SDS011;50121;51.218;7.664;2023-04-25T01:20:31;18.30;;;9.45;;
63943;SDS011;50121;51.218;7.664;2023-04-25T01:23:00;15.23;;;8.35;;
63943;SDS011;50121;51.218;7.664;2023-04-25T01:25:32;12.07;;;9.15;;
63943;SDS011;50121;51.218;7.664;2023-04-25T01:28:00;16.13;;;9.20;;
63943;SDS011;50121;51.218;7.664;2023-04-25T01:30:28;14.55;;;8.60;;
63943;SDS011;50121;51.218;7.664;2023-04-25T01:32:56;14.43;;;9.02;;
63943;SDS011;50121;51.218;7.664;2023-04-25T01:35:24;13.55;;;9.25;;
63943;SDS011;50121;51.218;7.664;2023-04-25T01:37:54;11.40;;;7.70;;
63943;SDS011;50121;51.218;7.664;2023-04-25T01:40:22;13.00;;;8.60;;
63943;SDS011;50121;51.218;7.664;2023-04-25T01:42:51;12.15;;;8.40;;
63943;SDS011;50121;51.218;7.664;2023-04-25T01:45:19;14.90;;;9.25;;
63943;SDS011;50121;51.218;7.664;2023-04-25T01:47:47;12.15;;;9.65;;
63943;SDS011;50121;51.218;7.664;2023-04-25T01:50:16;13.20;;;9.13;;
63943;SDS011;50121;51.218;7.664;2023-04-25T01:52:45;12.60;;;9.27;;
63943;SDS011;50121;51.218;7.664;2023-04-25T01:55:13;11.27;;;9.13;;
63943;SDS011;50121;51.218;7.664;2023-04-25T01:58:03;13.82;;;9.90;;
63943;SDS011;50121;51.218;7.664;2023-04-25T02:00:57;13.18;;;9.23;;
63943;SDS011;50121;51.218;7.664;2023-04-25T02:03:30;13.57;;;9.48;;
63943;SDS011;50121;51.218;7.664;2023-04-25T02:05:59;14.35;;;9.48;;
63943;SDS011;50121;51.218;7.664;2023-04-25T02:08:28;14.13;;;9.63;;
63943;SDS011;50121;51.218;7.664;2023-04-25T02:10:57;14.95;;;9.52;;
63943;SDS011;50121;51.218;7.664;2023-04-25T02:13:31;17.42;;;9.88;;
63943;SDS011;50121;51.218;7.664;2023-04-25T02:16:31;14.18;;;9.32;;
63943;SDS011;50121;51.218;7.664;2023-04-25T02:19:00;15.35;;;10.57;;
63943;SDS011;50121;51.218;7.664;2023-04-25T02:21:29;13.30;;;10.90;;
63943;SDS011;50121;51.218;7.664;2023-04-25T02:23:57;16.75;;;10.70;;
63943;SDS011;50121;51.218;7.664;2023-04-25T02:26:27;14.43;;;10.40;;
63943;SDS011;50121;51.218;7.664;2023-04-25T02:28:55;16.27;;;10.77;;
63943;SDS011;50121;51.218;7.664;2023-04-25T02:31:23;13.73;;;10.48;;
63943;SDS011;50121;51.218;7.664;2023-04-25T02:33:51;19.05;;;12.07;;
63943;SDS011;50121;51.218;7.664;2023-04-25T02:36:18;16.45;;;10.18;;
63943;SDS011;50121;51.218;7.664;2023-04-25T02:38:47;17.25;;;10.60;;
63943;SDS011;50121;51.218;7.664;2023-04-25T02:41:15;17.70;;;10.95;;
63943;SDS011;50121;51.218;7.664;2023-04-25T02:43:43;17.73;;;11.27;;
63943;SDS011;50121;51.218;7.664;2023-04-25T02:46:10;20.70;;;11.63;;
63943;SDS011;50121;51.218;7.664;2023-04-25T02:48:38;15.82;;;11.30;;
63943;SDS011;50121;51.218;7.664;2023-04-25T02:51:06;15.48;;;11.32;;
63943;SDS011;50121;51.218;7.664;2023-04-25T02:53:33;17.75;;;11.85;;
63943;SDS011;50121;51.218;7.664;2023-04-25T02:56:01;15.07;;;11.90;;
63943;SDS011;50121;51.218;7.664;2023-04-25T02:58:29;18.33;;;10.85;;
63943;SDS011;50121;51.218;7.664;2023-04-25T03:00:56;15.68;;;10.75;;
63943;SDS011;50121;51.218;7.664;2023-04-25T03:03:24;18.50;;;10.90;;
63943;SDS011;50121;51.218;7.664;2023-04-25T03:05:52;18.02;;;10.80;;
63943;SDS011;50121;51.218;7.664;2023-04-25T03:08:24;19.10;;;11.00;;
63943;SDS011;50121;51.218;7.664;2023-04-25T03:10:55;17.80;;;10.75;;
63943;SDS011;50121;51.218;7.664;2023-04-25T03:13:24;18.58;;;11.95;;
63943;SDS011;50121;51.218;7.664;2023-04-25T03:15:52;16.25;;;11.23;;
63943;SDS011;50121;51.218;7.664;2023-04-25T03:18:19;16.00;;;10.63;;
63943;SDS011;50121;51.218;7.664;2023-04-25T03:20:47;18.52;;;12.88;;
63943;SDS011;50121;51.218;7.664;2023-04-25T03:23:14;16.02;;;12.07;;
63943;SDS011;50121;51.218;7.664;2023-04-25T03:25:42;20.92;;;12.05;;
63943;SDS011;50121;51.218;7.664;2023-04-25T03:28:10;18.10;;;11.63;;
63943;SDS011;50121;51.218;7.664;2023-04-25T03:30:40;23.88;;;11.85;;
63943;SDS011;50121;51.218;7.664;2023-04-25T03:33:09;17.45;;;11.18;;
63943;SDS011;50121;51.218;7.664;2023-04-25T03:35:37;18.48;;;11.65;;
63943;SDS011;50121;51.218;7.664;2023-04-25T03:38:04;23.38;;;12.10;;
63943;SDS011;50121;51.218;7.664;2023-04-25T03:40:38;19.10;;;12.73;;
63943;SDS011;50121;51.218;7.664;2023-04-25T03:43:28;19.73;;;12.38;;
63943;SDS011;50121;51.218;7.664;2023-04-25T03:46:01;19.02;;;12.23;;
63943;SDS011;50121;51.218;7.664;2023-04-25T03:48:31;24.30;;;12.10;;
63943;SDS011;50121;51.218;7.664;2023-04-25T03:50:59;16.00;;;10.10;;
63943;SDS011;50121;51.218;7.664;2023-04-25T03:53:28;19.60;;;11.18;;
63943;SDS011;50121;51.218;7.664;2023-04-25T03:56:19;14.20;;;9.90;;
63943;SDS011;50121;51.218;7.664;2023-04-25T03:58:53;13.70;;;9.57;;
63943;SDS011;50121;51.218;7.664;2023-04-25T04:01:24;17.38;;;9.52;;
63943;SDS011;50121;51.218;7.664;2023-04-25T04:03:51;14.32;;;9.93;;
63943;SDS011;50121;51.218;7.664;2023-04-25T04:06:20;15.90;;;10.65;;
63943;SDS011;50121;51.218;7.664;2023-04-25T04:08:53;18.67;;;10.38;;
63943;SDS011;50121;51.218;7.664;2023-04-25T04:11:27;16.75;;;11.73;;
63943;SDS011;50121;51.218;7.664;2023-04-25T04:13:55;12.13;;;9.02;;
63943;SDS011;50121;51.218;7.664;2023-04-25T04:16:22;15.30;;;9.70;;
63943;SDS011;50121;51.218;7.664;2023-04-25T04:18:50;11.50;;;9.68;;
63943;SDS011;50121;51.218;7.664;2023-04-25T04:21:18;13.18;;;9.73;;
63943;SDS011;50121;51.218;7.664;2023-04-25T04:23:46;12.90;;;9.68;;
63943;SDS011;50121;51.218;7.664;2023-04-25T04:26:14;11.73;;;9.15;;
63943;SDS011;50121;51.218;7.664;2023-04-25T04:29:03;14.55;;;9.70;;
63943;SDS011;50121;51.218;7.664;2023-04-25T04:31:39;14.85;;;9.32;;
63943;SDS011;50121;51.218;7.664;2023-04-25T04:34:07;14.05;;;9.05;;
63943;SDS011;50121;51.218;7.664;2023-04-25T04:36:37;16.98;;;9.52;;
63943;SDS011;50121;51.218;7.664;2023-04-25T04:39:06;16.45;;;11.48;;
63943;SDS011;50121;51.218;7.664;2023-04-25T04:41:42;13.35;;;9.82;;
63943;SDS011;50121;51.218;7.664;2023-04-25T04:44:45;13.70;;;8.80;;
63943;SDS011;50121;51.218;7.664;2023-04-25T04:47:25;14.57;;;8.57;;
63943;SDS011;50121;51.218;7.664;2023-04-25T04:50:10;12.18;;;9.05;;
63943;SDS011;50121;51.218;7.664;2023-04-25T04:52:53;12.10;;;8.77;;
63943;SDS011;50121;51.218;7.664;2023-04-25T04:55:44;13.52;;;8.88;;
63943;SDS011;50121;51.218;7.664;2023-04-25T04:58:39;9.75;;;8.75;;
63943;SDS011;50121;51.218;7.664;2023-04-25T05:01:15;11.80;;;9.23;;
63943;SDS011;50121;51.218;7.664;2023-04-25T05:03:55;15.25;;;9.57;;
63943;SDS011;50121;51.218;7.664;2023-04-25T05:06:46;13.05;;;9.32;;
63943;SDS011;50121;51.218;7.664;2023-04-25T05:09:37;12.82;;;10.32;;
63943;SDS011;50121;51.218;7.664;2023-04-25T05:12:25;20.05;;;11.43;;
63943;SDS011;50121;51.218;7.664;2023-04-25T05:15:16;61.30;;;34.70;;
63943;SDS011;50121;51.218;7.664;2023-04-25T05:18:13;21.45;;;13.68;;
63943;SDS011;50121;51.218;7.664;2023-04-25T05:20:45;13.48;;;11.05;;
63943;SDS011;50121;51.218;7.664;2023-04-25T05:23:22;14.98;;;10.27;;
63943;SDS011;50121;51.218;7.664;2023-04-25T05:26:22;15.75;;;10.88;;
63943;SDS011;50121;51.218;7.664;2023-04-25T05:29:13;16.02;;;10.38;;
63943;SDS011;50121;51.218;7.664;2023-04-25T05:32:01;11.75;;;8.98;;
63943;SDS011;50121;51.218;7.664;2023-04-25T05:34:29;11.95;;;8.52;;
63943;SDS011;50121;51.218;7.664;2023-04-25T05:37:03;11.90;;;8.35;;
63943;SDS011;50121;51.218;7.664;2023-04-25T05:39:33;11.48;;;7.55;;
63943;SDS011;50121;51.218;7.664;2023-04-25T05:42:03;9.63;;;7.57;;
63943;SDS011;50121;51.218;7.664;2023-04-25T05:44:50;13.05;;;7.38;;
63943;SDS011;50121;51.218;7.664;2023-04-25T05:47:30;7.50;;;6.80;;
63943;SDS011;50121;51.218;7.664;2023-04-25T05:50:13;10.95;;;6.95;;
63943;SDS011;50121;51.218;7.664;2023-04-25T05:53:06;11.10;;;6.23;;
63943;SDS011;50121;51.218;7.664;2023-04-25T05:55:38;10.23;;;6.53;;
63943;SDS011;50121;51.218;7.664;2023-04-25T05:58:20;8.35;;;6.70;;
63943;SDS011;50121;51.218;7.664;2023-04-25T06:00:47;10.88;;;7.68;;
63943;SDS011;50121;51.218;7.664;2023-04-25T06:03:16;9.48;;;7.35;;
63943;SDS011;50121;51.218;7.664;2023-04-25T06:05:45;10.20;;;7.60;;
63943;SDS011;50121;51.218;7.664;2023-04-25T06:08:13;9.38;;;6.85;;
63943;SDS011;50121;51.218;7.664;2023-04-25T06:10:41;11.50;;;6.72;;
63943;SDS011;50121;51.218;7.664;2023-04-25T06:13:09;14.10;;;7.53;;
63943;SDS011;50121;51.218;7.664;2023-04-25T06:15:37;12.82;;;7.30;;
63943;SDS011;50121;51.218;7.664;2023-04-25T06:18:05;13.55;;;8.32;;
63943;SDS011;50121;51.218;7.664;2023-04-25T06:20:33;12.25;;;7.53;;
63943;SDS011;50121;51.218;7.664;2023-04-25T06:23:01;16.77;;;8.15;;
63943;SDS011;50121;51.218;7.664;2023-04-25T06:25:47;13.40;;;7.32;;
63943;SDS011;50121;51.218;7.664;2023-04-25T06:28:15;12.85;;;6.70;;
63943;SDS011;50121;51.218;7.664;2023-04-25T06:30:45;10.80;;;6.45;;
63943;SDS011;50121;51.218;7.664;2023-04-25T06:33:16;9.07;;;6.05;;
63943;SDS011;50121;51.218;7.664;2023-04-25T06:35:45;11.30;;;7.22;;
63943;SDS011;50121;51.218;7.664;2023-04-25T06:38:15;10.98;;;7.50;;
63943;SDS011;50121;51.218;7.664;2023-04-25T06:40:47;11.55;;;8.35;;
63943;SDS011;50121;51.218;7.664;2023-04-25T06:43:16;12.43;;;8.23;;
63943;SDS011;50121;51.218;7.664;2023-04-25T06:46:04;17.35;;;9.05;;
63943;SDS011;50121;51.218;7.664;2023-04-25T06:48:37;16.73;;;8.07;;
63943;SDS011;50121;51.218;7.664;2023-04-25T06:51:05;16.40;;;9.23;;
63943;SDS011;50121;51.218;7.664;2023-04-25T06:53:34;12.18;;;8.02;;
63943;SDS011;50121;51.218;7.664;2023-04-25T06:56:04;10.00;;;8.50;;
63943;SDS011;50121;51.218;7.664;2023-04-25T06:58:49;14.05;;;8.90;;
63943;SDS011;50121;51.218;7.664;2023-04-25T07:01:24;17.15;;;9.10;;
63943;SDS011;50121;51.218;7.664;2023-04-25T07:03:52;9.75;;;7.50;;
63943;SDS011;50121;51.218;7.664;2023-04-25T07:06:19;13.60;;;8.18;;
63943;SDS011;50121;51.218;7.664;2023-04-25T07:08:47;8.82;;;7.60;;
63943;SDS011;50121;51.218;7.664;2023-04-25T07:11:15;14.65;;;7.93;;
63943;SDS011;50121;51.218;7.664;2023-04-25T07:13:43;11.40;;;7.65;;
63943;SDS011;50121;51.218;7.664;2023-04-25T07:16:11;15.23;;;7.70;;
63943;SDS011;50121;51.218;7.664;2023-04-25T07:18:38;11.43;;;7.82;;
63943;SDS011;50121;51.218;7.664;2023-04-25T07:21:06;10.73;;;7.70;;
63943;SDS011;50121;51.218;7.664;2023-04-25T07:23:35;16.13;;;8.77;;
63943;SDS011;50121;51.218;7.664;2023-04-25T07:26:09;13.60;;;7.68;;
63943;SDS011;50121;51.218;7.664;2023-04-25T07:28:45;10.15;;;7.93;;
63943;SDS011;50121;51.218;7.664;2023-04-25T07:31:16;14.13;;;7.88;;
63943;SDS011;50121;51.218;7.664;2023-04-25T07:33:44;14.45;;;7.22;;
63943;SDS011;50121;51.218;7.664;2023-04-25T07:36:12;11.13;;;7.05;;
63943;SDS011;50121;51.218;7.664;2023-04-25T07:38:42;15.02;;;7.30;;
63943;SDS011;50121;51.218;7.664;2023-04-25T07:41:10;12.27;;;7.53;;
63943;SDS011;50121;51.218;7.664;2023-04-25T07:43:38;9.52;;;7.15;;
63943;SDS011;50121;51.218;7.664;2023-04-25T07:46:06;12.82;;;8.48;;
63943;SDS011;50121;51.218;7.664;2023-04-25T07:48:34;12.93;;;8.20;;
63943;SDS011;50121;51.218;7.664;2023-04-25T07:51:02;13.73;;;8.65;;
63943;SDS011;50121;51.218;7.664;2023-04-25T07:53:33;14.52;;;8.05;;
63943;SDS011;50121;51.218;7.664;2023-04-25T07:56:06;12.90;;;7.55;;
63943;SDS011;50121;51.218;7.664;2023-04-25T07:58:37;11.55;;;7.30;;
63943;SDS011;50121;51.218;7.664;2023-04-25T08:01:07;17.48;;;8.48;;
63943;SDS011;50121;51.218;7.664;2023-04-25T08:03:55;10.27;;;6.90;;
63943;SDS011;50121;51.218;7.664;2023-04-25T08:06:32;11.93;;;7.20;;
63943;SDS011;50121;51.218;7.664;2023-04-25T08:09:07;16.20;;;7.30;;
63943;SDS011;50121;51.218;7.664;2023-04-25T08:11:48;12.00;;;7.75;;
63943;SDS011;50121;51.218;7.664;2023-04-25T08:14:19;11.85;;;7.60;;
63943;SDS011;50121;51.218;7.664;2023-04-25T08:16:48;15.93;;;8.07;;
63943;SDS011;50121;51.218;7.664;2023-04-25T08:19:16;11.23;;;7.80;;
63943;SDS011;50121;51.218;7.664;2023-04-25T08:21:45;18.17;;;7.88;;
63943;SDS011;50121;51.218;7.664;2023-04-25T08:24:18;15.35;;;7.80;;
63943;SDS011;50121;51.218;7.664;2023-04-25T08:26:46;13.93;;;8.27;;
63943;SDS011;50121;51.218;7.664;2023-04-25T08:29:16;16.38;;;8.30;;
63943;SDS011;50121;51.218;7.664;2023-04-25T08:31:44;12.05;;;8.05;;
63943;SDS011;50121;51.218;7.664;2023-04-25T08:34:12;10.27;;;8.20;;
63943;SDS011;50121;51.218;7.664;2023-04-25T08:36:47;13.43;;;12.00;;
63943;SDS011;50121;51.218;7.664;2023-04-25T08:39:36;9.57;;;7.57;;
63943;SDS011;50121;51.218;7.664;2023-04-25T08:42:22;8.38;;;7.10;;
63943;SDS011;50121;51.218;7.664;2023-04-25T08:44:52;11.40;;;6.85;;
63943;SDS011;50121;51.218;7.664;2023-04-25T08:47:24;10.02;;;7.40;;
63943;SDS011;50121;51.218;7.664;2023-04-25T08:49:56;11.15;;;7.20;;
63943;SDS011;50121;51.218;7.664;2023-04-25T08:52:23;12.02;;;7.65;;
63943;SDS011;50121;51.218;7.664;2023-04-25T08:54:55;14.30;;;7.47;;
63943;SDS011;50121;51.218;7.664;2023-04-25T08:57:23;17.08;;;7.95;;
63943;SDS011;50121;51.218;7.664;2023-04-25T08:59:51;11.75;;;6.65;;
63943;SDS011;50121;51.218;7.664;2023-04-25T09:02:21;13.27;;;7.10;;
63943;SDS011;50121;51.218;7.664;2023-04-25T09:04:50;10.23;;;6.43;;
63943;SDS011;50121;51.218;7.664;2023-04-25T09:07:18;12.30;;;7.10;;
63943;SDS011;50121;51.218;7.664;2023-04-25T09:09:47;11.15;;;7.70;;
63943;SDS011;50121;51.218;7.664;2023-04-25T09:12:18;14.25;;;8.88;;
63943;SDS011;50121;51.218;7.664;2023-04-25T09:15:09;12.27;;;7.65;;
63943;SDS011;50121;51.218;7.664;2023-04-25T09:18:03;10.55;;;7.72;;
63943;SDS011;50121;51.218;7.664;2023-04-25T09:20:42;12.07;;;8.10;;
63943;SDS011;50121;51.218;7.664;2023-04-25T09:23:14;9.65;;;6.75;;
63943;SDS011;50121;51.218;7.664;2023-04-25T09:25:42;9.95;;;6.93;;
63943;SDS011;50121;51.218;7.664;2023-04-25T09:28:10;9.30;;;6.50;;
63943;SDS011;50121;51.218;7.664;2023-04-25T09:30:38;11.35;;;7.35;;
63943;SDS011;50121;51.218;7.664;2023-04-25T09:33:10;13.00;;;7.00;;
63943;SDS011;50121;51.218;7.664;2023-04-25T09:35:44;15.93;;;11.13;;
63943;SDS011;50121;51.218;7.664;2023-04-25T09:38:20;10.88;;;8.10;;
63943;SDS011;50121;51.218;7.664;2023-04-25T09:40:48;11.85;;;7.25;;
63943;SDS011;50121;51.218;7.664;2023-04-25T09:43:29;10.60;;;7.30;;
63943;SDS011;50121;51.218;7.664;2023-04-25T09:45:57;10.18;;;8.40;;
63943;SDS011;50121;51.218;7.664;2023-04-25T09:48:28;14.48;;;7.78;;
63943;SDS011;50121;51.218;7.664;2023-04-25T09:51:08;12.50;;;7.32;;
63943;SDS011;50121;51.218;7.664;2023-04-25T09:53:40;9.88;;;6.88;;
63943;SDS011;50121;51.218;7.664;2023-04-25T09:56:14;13.65;;;7.50;;
63943;SDS011;50121;51.218;7.664;2023-04-25T09:58:42;10.98;;;7.75;;
63943;SDS011;50121;51.218;7.664;2023-04-25T10:01:11;10.15;;;7.15;;
63943;SDS011;50121;51.218;7.664;2023-04-25T10:03:53;13.18;;;7.70;;
63943;SDS011;50121;51.218;7.664;2023-04-25T10:06:40;21.08;;;13.38;;
63943;SDS011;50121;51.218;7.664;2023-04-25T10:09:09;11.95;;;8.27;;
63943;SDS011;50121;51.218;7.664;2023-04-25T10:11:38;14.60;;;7.50;;
63943;SDS011;50121;51.218;7.664;2023-04-25T10:14:06;12.18;;;7.35;;
63943;SDS011;50121;51.218;7.664;2023-04-25T10:16:34;12.18;;;7.57;;
63943;SDS011;50121;51.218;7.664;2023-04-25T10:19:02;11.65;;;6.60;;
63943;SDS011;50121;51.218;7.664;2023-04-25T10:21:30;10.50;;;6.47;;
63943;SDS011;50121;51.218;7.664;2023-04-25T10:23:59;7.15;;;5.90;;
63943;SDS011;50121;51.218;7.664;2023-04-25T10:26:27;8.50;;;6.70;;
63943;SDS011;50121;51.218;7.664;2023-04-25T10:31:29;6.47;;;5.88;;
63943;SDS011;50121;51.218;7.664;2023-04-25T10:33:57;6.10;;;5.50;;
63943;SDS011;50121;51.218;7.664;2023-04-25T10:36:26;9.77;;;6.63;;
63943;SDS011;50121;51.218;7.664;2023-04-25T10:38:58;7.07;;;6.47;;
63943;SDS011;50121;51.218;7.664;2023-04-25T10:41:45;12.00;;;5.72;;
63943;SDS011;50121;51.218;7.664;2023-04-25T10:44:13;7.25;;;5.20;;
63943;SDS011;50121;51.218;7.664;2023-04-25T10:46:42;7.28;;;5.35;;
63943;SDS011;50121;51.218;7.664;2023-04-25T10:49:27;7.60;;;5.55;;
63943;SDS011;50121;51.218;7.664;2023-04-25T10:54:47;8.95;;;5.75;;
63943;SDS011;50121;51.218;7.664;2023-04-25T11:00:12;8.02;;;6.88;;
63943;SDS011;50121;51.218;7.664;2023-04-25T11:02:48;7.28;;;5.82;;
63943;SDS011;50121;51.218;7.664;2023-04-25T11:05:20;5.45;;;4.95;;
63943;SDS011;50121;51.218;7.664;2023-04-25T11:07:52;6.38;;;5.57;;
63943;SDS011;50121;51.218;7.664;2023-04-25T11:10:29;7.35;;;5.47;;
63943;SDS011;50121;51.218;7.664;2023-04-25T11:12:57;6.97;;;5.65;;
63943;SDS011;50121;51.218;7.664;2023-04-25T11:15:26;6.82;;;5.88;;
63943;SDS011;50121;51.218;7.664;2023-04-25T11:17:54;6.50;;;5.90;;
63943;SDS011;50121;51.218;7.664;2023-04-25T11:20:24;6.75;;;5.55;;
63943;SDS011;50121;51.218;7.664;2023-04-25T11:22:52;6.80;;;5.40;;
63943;SDS011;50121;51.218;7.664;2023-04-25T11:25:20;6.57;;;5.40;;
63943;SDS011;50121;51.218;7.664;2023-04-25T11:27:50;8.43;;;5.93;;
63943;SDS011;50121;51.218;7.664;2023-04-25T11:30:18;7.20;;;5.95;;
63943;SDS011;50121;51.218;7.664;2023-04-25T11:32:47;6.90;;;5.57;;
63943;SDS011;50121;51.218;7.664;2023-04-25T11:35:14;8.18;;;5.90;;
63943;SDS011;50121;51.218;7.664;2023-04-25T11:37:43;7.90;;;7.10;;
63943;SDS011;50121;51.218;7.664;2023-04-25T11:40:11;7.43;;;6.32;;
63943;SDS011;50121;51.218;7.664;2023-04-25T11:42:39;8.82;;;6.72;;
63943;SDS011;50121;51.218;7.664;2023-04-25T11:45:07;8.70;;;6.50;;
63943;SDS011;50121;51.218;7.664;2023-04-25T11:47:38;7.18;;;6.20;;
63943;SDS011;50121;51.218;7.664;2023-04-25T11:50:06;7.32;;;6.63;;
63943;SDS011;50121;51.218;7.664;2023-04-25T11:52:35;8.15;;;5.88;;
63943;SDS011;50121;51.218;7.664;2023-04-25T11:55:06;6.40;;;5.80;;
63943;SDS011;50121;51.218;7.664;2023-04-25T11:57:41;6.47;;;5.88;;
63943;SDS011;50121;51.218;7.664;2023-04-25T12:00:10;6.47;;;5.88;;
63943;SDS011;50121;51.218;7.664;2023-04-25T12:02:40;6.93;;;6.22;;
63943;SDS011;50121;51.218;7.664;2023-04-25T12:05:09;6.35;;;5.75;;
63943;SDS011;50121;51.218;7.664;2023-04-25T12:07:41;6.63;;;5.22;;
63943;SDS011;50121;51.218;7.664;2023-04-25T12:10:10;6.97;;;6.28;;
63943;SDS011;50121;51.218;7.664;2023-04-25T12:12:40;8.30;;;5.93;;
63943;SDS011;50121;51.218;7.664;2023-04-25T12:15:15;6.38;;;5.88;;
63943;SDS011;50121;51.218;7.664;2023-04-25T12:17:46;9.65;;;5.60;;
63943;SDS011;50121;51.218;7.664;2023-04-25T12:20:25;5.97;;;5.32;;
63943;SDS011;50121;51.218;7.664;2023-04-25T12:22:53;7.63;;;6.18;;
63943;SDS011;50121;51.218;7.664;2023-04-25T12:30:56;9.93;;;6.50;;
63943;SDS011;50121;51.218;7.664;2023-04-25T12:33:26;9.13;;;6.30;;
63943;SDS011;50121;51.218;7.664;2023-04-25T12:35:55;6.72;;;5.88;;
63943;SDS011;50121;51.218;7.664;2023-04-25T12:38:23;6.40;;;5.90;;
63943;SDS011;50121;51.218;7.664;2023-04-25T12:40:51;8.15;;;6.47;;
63943;SDS011;50121;51.218;7.664;2023-04-25T12:43:19;6.38;;;5.60;;
63943;SDS011;50121;51.218;7.664;2023-04-25T12:45:53;7.70;;;5.53;;
63943;SDS011;50121;51.218;7.664;2023-04-25T12:48:21;7.57;;;5.75;;
63943;SDS011;50121;51.218;7.664;2023-04-25T12:50:50;6.18;;;5.68;;
63943;SDS011;50121;51.218;7.664;2023-04-25T12:53:22;5.65;;;5.13;;
63943;SDS011;50121;51.218;7.664;2023-04-25T12:55:51;6.05;;;5.65;;
63943;SDS011;50121;51.218;7.664;2023-04-25T12:58:18;5.97;;;5.43;;
63943;SDS011;50121;51.218;7.664;2023-04-25T13:00:46;6.70;;;6.10;;
63943;SDS011;50121;51.218;7.664;2023-04-25T13:03:14;6.78;;;6.10;;
63943;SDS011;50121;51.218;7.664;2023-04-25T13:05:41;6.18;;;5.70;;
63943;SDS011;50121;51.218;7.664;2023-04-25T13:08:09;7.07;;;6.35;;
63943;SDS011;50121;51.218;7.664;2023-04-25T13:10:38;7.35;;;6.80;;
63943;SDS011;50121;51.218;7.664;2023-04-25T13:13:06;7.00;;;6.45;;
63943;SDS011;50121;51.218;7.664;2023-04-25T13:15:34;7.00;;;6.50;;
63943;SDS011;50121;51.218;7.664;2023-04-25T13:18:03;8.23;;;7.05;;
63943;SDS011;50121;51.218;7.664;2023-04-25T13:20:34;7.28;;;6.60;;
63943;SDS011;50121;51.218;7.664;2023-04-25T13:23:01;6.45;;;5.95;;
63943;SDS011;50121;51.218;7.664;2023-04-25T13:25:29;7.72;;;5.65;;
63943;SDS011;50121;51.218;7.664;2023-04-25T13:27:56;7.90;;;6.13;;
63943;SDS011;50121;51.218;7.664;2023-04-25T13:30:24;6.68;;;6.18;;
63943;SDS011;50121;51.218;7.664;2023-04-25T13:32:52;6.80;;;6.30;;
63943;SDS011;50121;51.218;7.664;2023-04-25T13:35:21;7.88;;;7.00;;
63943;SDS011;50121;51.218;7.664;2023-04-25T13:37:49;7.18;;;6.57;;
63943;SDS011;50121;51.218;7.664;2023-04-25T13:40:17;7.25;;;6.50;;
63943;SDS011;50121;51.218;7.664;2023-04-25T13:42:44;6.80;;;6.13;;
63943;SDS011;50121;51.218;7.664;2023-04-25T13:45:12;6.35;;;5.93;;
63943;SDS011;50121;51.218;7.664;2023-04-25T13:47:40;7.15;;;6.30;;
63943;SDS011;50121;51.218;7.664;2023-04-25T13:50:07;6.80;;;6.30;;
63943;SDS011;50121;51.218;7.664;2023-04-25T13:52:36;6.80;;;6.10;;
63943;SDS011;50121;51.218;7.664;2023-04-25T13:55:03;7.00;;;6.43;;
63943;SDS011;50121;51.218;7.664;2023-04-25T13:57:33;7.45;;;6.80;;
63943;SDS011;50121;51.218;7.664;2023-04-25T14:00:02;7.90;;;7.20;;
63943;SDS011;50121;51.218;7.664;2023-04-25T14:02:35;7.38;;;6.63;;
63943;SDS011;50121;51.218;7.664;2023-04-25T14:05:04;6.70;;;6.20;;
63943;SDS011;50121;51.218;7.664;2023-04-25T14:07:33;10.27;;;5.65;;
63943;SDS011;50121;51.218;7.664;2023-04-25T14:10:01;7.53;;;6.53;;
63943;SDS011;50121;51.218;7.664;2023-04-25T14:12:31;6.65;;;6.05;;
63943;SDS011;50121;51.218;7.664;2023-04-25T14:14:59;6.47;;;5.85;;
63943;SDS011;50121;51.218;7.664;2023-04-25T14:17:27;6.60;;;6.07;;
63943;SDS011;50121;51.218;7.664;2023-04-25T14:19:54;7.05;;;6.47;;
63943;SDS011;50121;51.218;7.664;2023-04-25T14:22:22;8.10;;;7.40;;
63943;SDS011;50121;51.218;7.664;2023-04-25T14:24:50;7.35;;;6.75;;
63943;SDS011;50121;51.218;7.664;2023-04-25T14:27:18;7.07;;;6.47;;
63943;SDS011;50121;51.218;7.664;2023-04-25T14:29:46;7.82;;;6.90;;
63943;SDS011;50121;51.218;7.664;2023-04-25T14:32:14;6.90;;;6.38;;
63943;SDS011;50121;51.218;7.664;2023-04-25T14:34:42;6.80;;;6.40;;
63943;SDS011;50121;51.218;7.664;2023-04-25T14:37:09;7.68;;;7.07;;
63943;SDS011;50121;51.218;7.664;2023-04-25T14:39:37;6.82;;;6.22;;
63943;SDS011;50121;51.218;7.664;2023-04-25T14:42:05;6.82;;;6.22;;
63943;SDS011;50121;51.218;7.664;2023-04-25T14:44:32;6.50;;;6.00;;
63943;SDS011;50121;51.218;7.664;2023-04-25T14:47:00;6.88;;;6.20;;
63943;SDS011;50121;51.218;7.664;2023-04-25T14:49:28;7.32;;;6.72;;
63943;SDS011;50121;51.218;7.664;2023-04-25T14:51:55;7.35;;;6.80;;
63943;SDS011;50121;51.218;7.664;2023-04-25T14:54:23;7.20;;;6.50;;
63943;SDS011;50121;51.218;7.664;2023-04-25T14:56:51;6.88;;;6.32;;
63943;SDS011;50121;51.218;7.664;2023-04-25T14:59:18;7.10;;;6.60;;
63943;SDS011;50121;51.218;7.664;2023-04-25T15:01:46;7.13;;;6.43;;
63943;SDS011;50121;51.218;7.664;2023-04-25T15:04:14;7.32;;;6.53;;
63943;SDS011;50121;51.218;7.664;2023-04-25T15:06:43;7.20;;;6.70;;
63943;SDS011;50121;51.218;7.664;2023-04-25T15:09:11;7.35;;;6.70;;
63943;SDS011;50121;51.218;7.664;2023-04-25T15:11:39;7.95;;;7.25;;
63943;SDS011;50121;51.218;7.664;2023-04-25T15:14:06;7.55;;;7.00;;
63943;SDS011;50121;51.218;7.664;2023-04-25T15:16:34;8.00;;;7.40;;